Time;durP1;ratioP1;P1;durP2;ratioP2;P2;SDS_P1;SDS_P2;PMS_P1;PMS_P2;Temp;Humidity;BMP_temperature;BMP_pressure;BME280_temperature;BME280_humidity;BME280_pressure;Samples;Min_cycle;Max_cycle;Signal;HPM_P1;HPM_P2
2022/01/11 00:00:22;;;;;;;14.90;6.40;;;8.30;99.90;;;;;;4221569;28;20101;-81
2022/01/11 00:02:24;;;;;;;22.20;6.80;;;8.30;99.90;;;;;;4221772;28;20045;-80
2022/01/11 00:04:29;;;;;;;16.17;6.50;;;8.30;99.90;;;;;;4224765;28;20048;-81
2022/01/11 00:06:38;;;;;;;11.40;5.93;;;8.30;99.90;;;;;;4208583;28;20512;-80
2022/01/11 00:08:41;;;;;;;13.57;5.78;;;8.30;99.90;;;;;;4216305;28;20052;-81
2022/01/11 00:10:54;;;;;;;13.50;6.45;;;8.30;99.90;;;;;;4202383;28;20792;-82
2022/01/11 00:12:59;;;;;;;18.40;5.65;;;8.30;99.90;;;;;;4211667;28;20053;-82
2022/01/11 00:15:01;;;;;;;12.57;5.40;;;8.30;99.90;;;;;;4225877;28;20518;-83
2022/01/11 00:17:03;;;;;;;14.77;6.10;;;8.30;99.90;;;;;;4225217;28;20052;-81
2022/01/11 00:19:09;;;;;;;9.25;5.13;;;8.20;99.90;;;;;;4193502;28;20436;-81
2022/01/11 00:21:12;;;;;;;11.43;4.90;;;8.30;99.90;;;;;;4199150;28;20052;-89
2022/01/11 00:25:15;;;;;;;7.63;3.95;;;8.20;99.90;;;;;;4183851;28;20056;-79
2022/01/11 00:27:18;;;;;;;8.88;3.65;;;8.20;99.90;;;;;;4199285;28;20076;-82
2022/01/11 00:29:20;;;;;;;10.20;3.72;;;8.20;99.90;;;;;;4199864;28;20055;-83
2022/01/11 00:31:22;;;;;;;9.93;4.10;;;8.20;99.90;;;;;;4199049;28;20079;-81
2022/01/11 00:33:39;;;;;;;8.77;3.53;;;8.20;99.90;;;;;;4199318;28;20102;-80
2022/01/11 00:37:46;;;;;;;7.63;4.00;;;8.20;99.90;;;;;;4192866;28;20071;-82
2022/01/11 00:39:52;;;;;;;12.13;3.88;;;8.20;99.90;;;;;;4200304;28;20051;-87
2022/01/11 00:41:54;;;;;;;8.85;3.95;;;8.20;99.90;;;;;;4202186;28;20514;-82
2022/01/11 00:43:56;;;;;;;10.45;3.97;;;8.20;99.90;;;;;;4199387;28;20123;-80
2022/01/11 00:45:59;;;;;;;12.23;3.83;;;8.20;99.90;;;;;;4198352;28;20059;-81
2022/01/11 00:48:01;;;;;;;15.13;4.60;;;8.10;99.90;;;;;;4199038;28;20052;-84
2022/01/11 00:50:07;;;;;;;10.30;5.05;;;8.10;99.90;;;;;;4199262;28;20044;-81
2022/01/11 00:52:09;;;;;;;12.20;4.72;;;8.10;99.90;;;;;;4198597;28;20102;-81
2022/01/11 00:54:11;;;;;;;15.77;4.30;;;8.10;99.90;;;;;;4198964;28;20052;-81
2022/01/11 00:56:13;;;;;;;12.52;4.53;;;8.10;99.90;;;;;;4201635;28;20060;-79
2022/01/11 00:58:16;;;;;;;12.38;4.15;;;8.10;99.90;;;;;;4204113;28;20157;-82
2022/01/11 01:00:18;;;;;;;11.13;4.35;;;8.10;99.90;;;;;;4198974;28;20122;-81
2022/01/11 01:02:20;;;;;;;13.25;4.75;;;8.10;99.90;;;;;;4209138;28;20040;-82
2022/01/11 01:04:22;;;;;;;13.50;4.70;;;8.10;99.90;;;;;;4206476;28;20040;-82
2022/01/11 01:06:24;;;;;;;19.00;5.43;;;8.10;99.90;;;;;;4205175;28;20083;-83
2022/01/11 01:08:26;;;;;;;15.35;5.53;;;8.10;99.90;;;;;;4203139;28;20100;-83
2022/01/11 01:10:40;;;;;;;18.83;6.00;;;8.00;99.90;;;;;;4205287;28;20574;-81
2022/01/11 01:12:42;;;;;;;18.83;4.80;;;8.00;99.90;;;;;;4209019;28;20055;-80
2022/01/11 01:14:44;;;;;;;19.90;5.57;;;8.10;99.90;;;;;;4200170;28;20125;-80
2022/01/11 01:16:47;;;;;;;18.02;4.90;;;8.10;99.90;;;;;;4225801;28;20082;-80
2022/01/11 01:18:49;;;;;;;15.63;4.43;;;8.10;99.90;;;;;;4209648;28;20410;-81
2022/01/11 01:20:53;;;;;;;22.92;5.85;;;8.00;99.90;;;;;;4208237;28;20109;-81
2022/01/11 01:22:55;;;;;;;17.27;5.53;;;8.10;99.90;;;;;;4211655;28;20097;-81
2022/01/11 01:24:57;;;;;;;23.92;6.15;;;8.00;99.90;;;;;;4207029;28;20585;-81
2022/01/11 01:26:59;;;;;;;21.70;6.40;;;8.00;99.90;;;;;;4197284;28;20048;-82
2022/01/11 01:29:02;;;;;;;17.83;6.00;;;8.00;99.90;;;;;;4193882;28;20173;-81
2022/01/11 01:31:05;;;;;;;15.45;5.85;;;8.00;99.90;;;;;;4181803;28;20049;-81
2022/01/11 01:33:07;;;;;;;17.95;6.18;;;8.10;99.90;;;;;;4181552;28;20045;-82
2022/01/11 01:35:09;;;;;;;24.52;6.30;;;8.00;99.90;;;;;;4188020;28;20056;-82
2022/01/11 01:37:11;;;;;;;15.82;6.53;;;8.00;99.90;;;;;;4187780;28;20121;-82
2022/01/11 01:39:13;;;;;;;23.10;6.88;;;8.10;99.90;;;;;;4205833;28;20075;-82
2022/01/11 01:41:18;;;;;;;17.40;6.18;;;8.10;99.90;;;;;;4198088;28;20083;-80
2022/01/11 01:43:20;;;;;;;20.63;6.38;;;8.10;99.90;;;;;;4198351;28;20469;-83
2022/01/11 01:45:24;;;;;;;19.30;6.70;;;8.00;99.90;;;;;;4197172;28;20049;-82
2022/01/11 01:47:26;;;;;;;16.50;6.60;;;8.10;99.90;;;;;;4197932;28;20076;-81
2022/01/11 01:49:29;;;;;;;18.38;6.57;;;8.00;99.90;;;;;;4181490;28;20049;-82
2022/01/11 01:51:31;;;;;;;20.00;7.43;;;8.00;99.90;;;;;;4184190;28;20045;-80
2022/01/11 01:53:35;;;;;;;22.00;7.20;;;8.10;99.90;;;;;;4206866;28;20053;-81
2022/01/11 01:55:39;;;;;;;18.02;7.03;;;8.00;99.90;;;;;;4197582;28;20044;-82
2022/01/11 01:57:41;;;;;;;16.52;7.72;;;8.10;99.90;;;;;;4183387;28;20057;-82
2022/01/11 01:59:43;;;;;;;15.63;7.20;;;8.00;99.90;;;;;;4181608;28;20052;-82
2022/01/11 02:01:47;;;;;;;21.20;7.57;;;8.10;99.90;;;;;;4194726;28;20056;-81
2022/01/11 02:03:49;;;;;;;20.33;7.47;;;8.10;99.90;;;;;;4197622;28;20058;-81
2022/01/11 02:05:53;;;;;;;21.88;7.97;;;8.10;99.90;;;;;;4181311;28;20336;-81
2022/01/11 02:07:55;;;;;;;22.25;8.18;;;8.10;99.90;;;;;;4192024;28;20119;-80
2022/01/11 02:09:57;;;;;;;20.00;7.88;;;8.00;99.90;;;;;;4197831;28;20067;-81
2022/01/11 02:11:59;;;;;;;20.38;8.57;;;8.10;99.90;;;;;;4197881;28;20106;-82
2022/01/11 02:14:01;;;;;;;21.70;8.20;;;8.00;99.90;;;;;;4197151;28;20049;-81
2022/01/11 02:16:04;;;;;;;18.95;8.48;;;8.00;99.90;;;;;;4197654;28;20056;-82
2022/01/11 02:18:15;;;;;;;19.98;8.90;;;8.10;99.90;;;;;;4197645;28;20135;-81
2022/01/11 02:20:17;;;;;;;20.67;7.85;;;8.10;99.90;;;;;;4209562;28;20067;-81
2022/01/11 02:22:18;;;;;;;22.77;9.05;;;8.00;99.90;;;;;;4197374;28;20135;-82
2022/01/11 02:24:20;;;;;;;27.80;9.10;;;8.10;99.90;;;;;;4196556;28;20068;-81
2022/01/11 02:26:23;;;;;;;20.58;9.23;;;8.10;99.90;;;;;;4188230;28;20494;-81
2022/01/11 02:28:28;;;;;;;18.30;8.40;;;8.10;99.90;;;;;;4197772;28;20091;-80
2022/01/11 02:30:33;;;;;;;17.50;8.32;;;8.00;99.90;;;;;;4196403;28;20087;-81
2022/01/11 02:32:48;;;;;;;16.70;9.02;;;8.00;99.90;;;;;;4197377;28;20044;-84
2022/01/11 02:34:50;;;;;;;21.67;9.40;;;8.10;99.90;;;;;;4180955;28;20466;-82
2022/01/11 02:36:52;;;;;;;20.40;9.43;;;8.00;99.90;;;;;;4183880;28;20052;-83
2022/01/11 02:38:54;;;;;;;20.80;8.73;;;8.00;99.90;;;;;;4197464;28;20060;-81
2022/01/11 02:40:58;;;;;;;21.38;9.48;;;8.00;99.90;;;;;;4197345;28;20056;-82
2022/01/11 02:43:00;;;;;;;19.63;9.25;;;8.00;99.90;;;;;;4196581;28;20436;-80
2022/01/11 02:45:02;;;;;;;18.08;9.15;;;8.00;99.90;;;;;;4180680;28;20246;-83
2022/01/11 02:47:05;;;;;;;17.58;8.57;;;8.00;99.90;;;;;;4184283;28;20048;-81
2022/01/11 02:49:07;;;;;;;18.77;8.48;;;8.00;99.90;;;;;;4197386;28;20048;-81
2022/01/11 02:51:09;;;;;;;20.27;10.02;;;8.00;99.90;;;;;;4197421;28;20075;-80
2022/01/11 02:53:11;;;;;;;18.55;9.10;;;8.00;99.90;;;;;;4196137;28;20072;-82
2022/01/11 02:55:15;;;;;;;23.92;9.65;;;7.90;99.90;;;;;;4180624;28;20044;-80
2022/01/11 02:57:17;;;;;;;16.42;8.52;;;8.00;99.90;;;;;;4180799;28;20045;-82
2022/01/11 02:59:19;;;;;;;19.98;9.40;;;7.90;99.90;;;;;;4180707;28;20077;-81
2022/01/11 03:01:21;;;;;;;23.02;9.60;;;7.90;99.90;;;;;;4194787;28;20049;-82
2022/01/11 03:03:23;;;;;;;21.73;9.48;;;8.00;99.90;;;;;;4197106;28;20540;-81
2022/01/11 03:05:25;;;;;;;18.83;9.70;;;8.00;99.90;;;;;;4196818;28;20044;-80
2022/01/11 03:07:27;;;;;;;23.90;10.40;;;8.00;99.90;;;;;;4197092;28;20083;-82
2022/01/11 03:09:35;;;;;;;18.60;9.57;;;8.00;99.90;;;;;;4196248;28;20060;-81
2022/01/11 03:11:40;;;;;;;18.45;9.90;;;8.00;99.90;;;;;;4197243;28;20072;-81
2022/01/11 03:13:43;;;;;;;22.60;10.32;;;8.00;99.90;;;;;;4180666;28;20056;-80
2022/01/11 03:15:47;;;;;;;21.42;10.45;;;8.00;99.90;;;;;;4180615;28;20413;-80
2022/01/11 03:17:49;;;;;;;22.83;10.02;;;8.00;99.90;;;;;;4190654;28;20052;-80
2022/01/11 03:19:51;;;;;;;19.70;9.75;;;8.00;99.90;;;;;;4213662;28;20154;-80
2022/01/11 03:21:53;;;;;;;23.02;10.45;;;8.00;99.90;;;;;;4197098;28;20083;-81
2022/01/11 03:23:57;;;;;;;21.50;9.68;;;8.00;99.90;;;;;;4195672;28;20060;-81
2022/01/11 03:26:02;;;;;;;19.80;10.30;;;8.10;99.90;;;;;;4195548;28;20103;-82
2022/01/11 03:28:04;;;;;;;21.23;9.93;;;8.10;99.90;;;;;;4189082;28;20076;-82
2022/01/11 03:30:07;;;;;;;19.55;9.30;;;8.10;99.90;;;;;;4182478;28;20490;-82
2022/01/11 03:32:09;;;;;;;20.90;9.85;;;8.10;99.90;;;;;;4196715;28;20067;-82
2022/01/11 03:34:31;;;;;;;24.70;10.13;;;8.10;99.90;;;;;;4180564;28;20135;-80
2022/01/11 03:36:33;;;;;;;21.35;9.45;;;8.10;99.90;;;;;;4186519;28;20044;-80
2022/01/11 03:38:36;;;;;;;15.85;8.50;;;8.00;99.90;;;;;;4196867;28;20045;-82
2022/01/11 03:40:40;;;;;;;21.83;10.15;;;8.10;99.90;;;;;;4195789;28;20080;-79
2022/01/11 03:42:43;;;;;;;26.10;9.77;;;8.10;99.90;;;;;;4196819;28;20048;-82
2022/01/11 03:44:45;;;;;;;19.88;9.85;;;8.10;99.90;;;;;;4180578;28;20045;-80
2022/01/11 03:46:47;;;;;;;20.63;9.27;;;8.10;99.90;;;;;;4181024;28;20052;-80
2022/01/11 03:48:49;;;;;;;18.33;9.85;;;8.10;99.90;;;;;;4192798;28;20072;-84
2022/01/11 03:50:55;;;;;;;23.15;10.55;;;8.10;99.90;;;;;;4179815;28;20056;-82
2022/01/11 03:53:15;;;;;;;24.92;9.80;;;8.10;99.90;;;;;;4181512;28;20041;-79
2022/01/11 03:55:31;;;;;;;24.77;10.15;;;8.10;99.90;;;;;;4183492;28;20073;-80
2022/01/11 03:57:34;;;;;;;28.73;9.63;;;8.10;99.90;;;;;;4188818;28;20063;-81
2022/01/11 03:59:36;;;;;;;22.77;9.68;;;8.10;99.90;;;;;;4199800;28;20057;-82
2022/01/11 04:01:38;;;;;;;24.50;10.70;;;8.10;99.90;;;;;;4199661;28;20044;-80
2022/01/11 04:03:40;;;;;;;28.85;10.38;;;8.10;99.90;;;;;;4199825;28;20056;-81
2022/01/11 04:05:44;;;;;;;25.23;10.52;;;8.10;99.90;;;;;;4196744;28;20473;-81
2022/01/11 04:07:46;;;;;;;27.42;11.18;;;8.10;99.90;;;;;;4199587;28;20044;-82
2022/01/11 04:09:49;;;;;;;27.17;9.88;;;8.10;99.90;;;;;;4183361;28;20057;-80
2022/01/11 04:11:51;;;;;;;27.38;11.10;;;8.10;99.90;;;;;;4199727;28;20087;-81
2022/01/11 04:13:53;;;;;;;22.73;10.82;;;8.00;99.90;;;;;;4198844;28;20813;-82
2022/01/11 04:15:55;;;;;;;32.50;11.95;;;8.00;99.90;;;;;;4186987;28;20067;-81
2022/01/11 04:17:57;;;;;;;28.08;11.80;;;8.00;99.90;;;;;;4199443;28;20049;-81
2022/01/11 04:19:59;;;;;;;28.10;11.15;;;8.00;99.90;;;;;;4199830;28;20531;-81
2022/01/11 04:22:01;;;;;;;25.35;10.57;;;8.00;99.90;;;;;;4199397;28;20471;-80
2022/01/11 04:24:03;;;;;;;32.63;11.27;;;8.00;99.90;;;;;;4194678;28;20527;-81
2022/01/11 04:26:05;;;;;;;30.20;11.38;;;8.00;99.90;;;;;;4199306;28;20132;-81
2022/01/11 04:28:07;;;;;;;29.52;11.93;;;8.00;99.90;;;;;;4182805;28;20051;-81
2022/01/11 04:30:10;;;;;;;31.17;12.18;;;8.00;99.90;;;;;;4183921;28;20053;-82
2022/01/11 04:32:12;;;;;;;30.48;12.32;;;8.00;99.90;;;;;;4186096;28;20045;-80
2022/01/11 04:34:15;;;;;;;27.48;13.07;;;8.00;99.90;;;;;;4182759;28;20072;-80
2022/01/11 04:36:16;;;;;;;41.53;13.32;;;8.00;99.90;;;;;;4182669;28;20076;-81
2022/01/11 04:38:21;;;;;;;34.90;13.23;;;8.00;99.90;;;;;;4182288;28;20080;-81
2022/01/11 04:40:23;;;;;;;28.02;12.68;;;8.00;99.90;;;;;;4199266;28;20451;-81
2022/01/11 04:42:25;;;;;;;26.17;12.90;;;8.00;99.90;;;;;;4182818;28;20052;-82
2022/01/11 04:44:27;;;;;;;27.38;12.63;;;8.00;99.90;;;;;;4194878;28;20087;-82
2022/01/11 04:46:29;;;;;;;28.65;13.27;;;8.00;99.90;;;;;;4196634;28;20068;-82
2022/01/11 04:48:32;;;;;;;28.70;12.95;;;8.00;99.90;;;;;;4182405;28;20112;-81
2022/01/11 04:50:35;;;;;;;34.95;12.88;;;8.00;99.90;;;;;;4189976;28;20052;-79
2022/01/11 04:52:37;;;;;;;28.55;13.98;;;8.00;99.90;;;;;;4182167;28;20057;-80
2022/01/11 04:54:40;;;;;;;27.52;13.07;;;8.00;99.90;;;;;;4182284;28;20080;-81
2022/01/11 04:56:42;;;;;;;31.17;13.35;;;8.00;99.90;;;;;;4182278;28;20049;-79
2022/01/11 04:58:44;;;;;;;36.47;14.30;;;8.00;99.90;;;;;;4183590;28;20073;-81
2022/01/11 05:00:46;;;;;;;24.42;12.88;;;8.00;99.90;;;;;;4186424;28;20076;-80
2022/01/11 05:02:49;;;;;;;33.30;13.73;;;8.10;99.90;;;;;;4198538;28;20143;-81
2022/01/11 05:04:51;;;;;;;35.67;13.57;;;8.00;99.90;;;;;;4199116;28;20102;-81
2022/01/11 05:06:55;;;;;;;35.78;14.10;;;8.00;99.90;;;;;;4197213;28;20107;-82
2022/01/11 05:08:57;;;;;;;30.90;13.60;;;8.00;99.90;;;;;;4181957;28;20052;-81
2022/01/11 05:10:59;;;;;;;37.80;14.68;;;8.00;99.90;;;;;;4198748;28;20075;-82
2022/01/11 05:13:00;;;;;;;28.80;13.93;;;8.00;99.90;;;;;;4198763;28;20120;-83
2022/01/11 05:15:03;;;;;;;32.05;14.32;;;8.00;99.90;;;;;;4198898;28;20496;-82
2022/01/11 05:17:05;;;;;;;33.38;13.90;;;8.00;99.90;;;;;;4197385;28;20055;-81
2022/01/11 05:19:12;;;;;;;32.28;13.80;;;8.00;99.90;;;;;;4181879;28;20056;-83
2022/01/11 05:21:14;;;;;;;32.83;13.45;;;8.00;99.90;;;;;;4182977;28;20463;-80
2022/01/11 05:23:16;;;;;;;36.80;14.50;;;8.00;99.90;;;;;;4181769;28;20516;-82
2022/01/11 05:25:20;;;;;;;30.95;13.73;;;8.00;99.90;;;;;;4194512;28;20098;-82
2022/01/11 05:27:23;;;;;;;41.25;13.52;;;8.00;99.90;;;;;;4198030;28;20075;-81
2022/01/11 05:29:25;;;;;;;33.63;13.35;;;8.00;99.90;;;;;;4182775;28;20041;-79
2022/01/11 05:31:26;;;;;;;26.38;13.68;;;8.10;99.90;;;;;;4197059;28;20047;-83
2022/01/11 05:33:28;;;;;;;35.80;13.43;;;8.00;99.90;;;;;;4185972;28;20098;-81
2022/01/11 05:35:31;;;;;;;36.45;14.30;;;8.00;99.90;;;;;;4197933;28;20428;-81
2022/01/11 05:37:33;;;;;;;27.45;13.15;;;8.10;99.90;;;;;;4189364;28;20132;-80
2022/01/11 05:39:36;;;;;;;36.40;14.75;;;8.10;99.90;;;;;;4198243;28;20052;-81
2022/01/11 05:41:38;;;;;;;34.05;13.35;;;8.00;99.90;;;;;;4198266;28;20044;-83
2022/01/11 05:43:40;;;;;;;35.50;13.50;;;8.10;99.90;;;;;;4198387;28;20056;-80
2022/01/11 05:45:43;;;;;;;35.95;13.85;;;8.00;99.90;;;;;;4196283;28;20432;-82
2022/01/11 05:47:48;;;;;;;39.10;14.45;;;8.00;99.90;;;;;;4197396;28;20405;-80
2022/01/11 05:49:50;;;;;;;35.35;13.93;;;8.00;99.90;;;;;;4181936;28;20071;-79
2022/01/11 05:51:51;;;;;;;39.92;14.25;;;8.10;99.90;;;;;;4181633;28;20069;-85
2022/01/11 05:53:54;;;;;;;42.33;14.77;;;8.00;99.90;;;;;;4191884;28;20087;-80
2022/01/11 05:55:56;;;;;;;37.20;15.05;;;8.00;99.90;;;;;;4197813;28;20423;-82
2022/01/11 05:57:58;;;;;;;33.40;14.50;;;8.10;99.90;;;;;;4181501;28;20048;-82
2022/01/11 06:00:02;;;;;;;36.05;15.23;;;8.10;99.90;;;;;;4189787;28;20086;-81
2022/01/11 06:02:04;;;;;;;32.53;14.60;;;8.10;99.90;;;;;;4181454;28;20052;-80
2022/01/11 06:04:06;;;;;;;32.13;15.07;;;8.10;99.90;;;;;;4181093;28;20049;-81
2022/01/11 06:06:08;;;;;;;33.03;15.40;;;8.10;99.90;;;;;;4180619;28;20140;-80
2022/01/11 06:08:16;;;;;;;43.17;15.73;;;8.10;99.90;;;;;;4191252;28;20075;-82
2022/01/11 06:10:19;;;;;;;34.67;16.38;;;8.10;99.90;;;;;;4197753;28;20044;-81
2022/01/11 06:12:20;;;;;;;31.08;14.45;;;8.10;99.90;;;;;;4196651;28;20040;-82
2022/01/11 06:14:23;;;;;;;40.35;16.40;;;8.10;99.90;;;;;;4181035;28;20132;-82
2022/01/11 06:16:25;;;;;;;42.83;16.38;;;8.10;99.90;;;;;;4180665;28;20084;-81
2022/01/11 06:18:27;;;;;;;39.05;16.55;;;8.10;99.90;;;;;;4181116;28;20531;-80
2022/01/11 06:20:29;;;;;;;41.58;15.75;;;8.10;99.90;;;;;;4192368;28;20063;-81
2022/01/11 06:22:31;;;;;;;34.28;15.07;;;8.10;99.90;;;;;;4197247;28;20052;-81
2022/01/11 06:24:36;;;;;;;;;;;8.10;99.90;;;;;;4197351;28;20044;-82
2022/01/11 06:26:38;;;;;;;36.72;15.63;;;8.10;99.90;;;;;;4181102;28;19952;-80
2022/01/11 06:28:40;;;;;;;39.03;16.63;;;8.10;99.90;;;;;;4196163;28;20049;-81
2022/01/11 06:30:42;;;;;;;34.17;16.48;;;8.10;99.90;;;;;;4197329;28;20056;-81
2022/01/11 06:32:45;;;;;;;36.78;16.73;;;8.10;99.90;;;;;;4197405;28;20052;-81
2022/01/11 06:34:47;;;;;;;37.08;16.63;;;8.10;99.90;;;;;;4197257;28;20474;-80
2022/01/11 06:36:49;;;;;;;36.70;16.40;;;8.10;99.90;;;;;;4188512;28;20504;-79
2022/01/11 06:38:51;;;;;;;34.97;16.70;;;8.10;99.90;;;;;;4180529;28;20075;-80
2022/01/11 06:40:53;;;;;;;34.85;17.27;;;8.10;99.90;;;;;;4180600;28;20048;-80
2022/01/11 06:42:55;;;;;;;34.83;17.15;;;8.10;99.90;;;;;;4185799;28;20068;-82
2022/01/11 06:44:57;;;;;;;45.15;18.17;;;8.10;99.90;;;;;;4180469;28;20049;-82
2022/01/11 06:46:59;;;;;;;38.90;16.15;;;8.10;99.90;;;;;;4180780;28;20041;-80
2022/01/11 06:49:01;;;;;;;38.08;17.83;;;8.10;99.90;;;;;;4179914;28;20041;-80
2022/01/11 06:51:03;;;;;;;41.30;17.70;;;8.20;99.90;;;;;;4188967;28;20057;-80
2022/01/11 06:53:06;;;;;;;39.05;17.88;;;8.10;99.90;;;;;;4180545;28;20511;-80
2022/01/11 06:55:10;;;;;;;37.63;17.60;;;8.10;99.90;;;;;;4179335;28;20045;-80
2022/01/11 06:57:11;;;;;;;44.90;18.52;;;8.10;99.90;;;;;;4180349;28;20044;-80
2022/01/11 06:59:13;;;;;;;39.85;15.95;;;8.10;99.90;;;;;;4180467;28;20080;-80
2022/01/11 07:01:15;;;;;;;40.10;16.35;;;8.10;99.90;;;;;;4180058;28;20079;-80
2022/01/11 07:03:18;;;;;;;37.60;16.73;;;8.10;99.90;;;;;;4200867;28;20075;-79
2022/01/11 07:05:20;;;;;;;36.08;16.55;;;8.10;99.90;;;;;;4180499;28;20057;-78
2022/01/11 07:07:23;;;;;;;34.72;17.23;;;8.10;99.90;;;;;;4180421;28;20079;-81
2022/01/11 07:09:25;;;;;;;32.20;16.90;;;8.10;99.90;;;;;;4196779;28;20045;-79
2022/01/11 07:11:27;;;;;;;34.47;17.38;;;8.10;99.90;;;;;;4183901;28;20791;-78
2022/01/11 07:13:29;;;;;;;38.50;16.42;;;8.10;99.90;;;;;;4196647;28;20110;-79
2022/01/11 07:15:31;;;;;;;34.95;16.08;;;8.10;99.90;;;;;;4186082;28;20041;-79
2022/01/11 07:17:34;;;;;;;37.92;16.80;;;8.10;99.90;;;;;;4196992;28;20056;-87
2022/01/11 07:19:37;;;;;;;35.35;16.50;;;8.10;99.90;;;;;;4198479;28;20052;-86
2022/01/11 07:21:39;;;;;;;33.13;16.00;;;8.10;99.90;;;;;;4198155;28;20079;-80
2022/01/11 07:23:41;;;;;;;29.38;15.52;;;8.10;99.90;;;;;;4191976;28;20052;-80
2022/01/11 07:25:43;;;;;;;35.08;15.40;;;8.10;99.90;;;;;;4196630;28;20083;-78
2022/01/11 07:27:45;;;;;;;35.45;16.88;;;8.10;99.90;;;;;;4180951;28;20433;-79
2022/01/11 07:29:47;;;;;;;40.78;16.90;;;8.10;99.90;;;;;;4212184;28;20515;-80
2022/01/11 07:31:49;;;;;;;44.85;16.35;;;8.10;99.90;;;;;;4199643;28;20048;-78
2022/01/11 07:33:51;;;;;;;39.22;17.08;;;8.10;99.90;;;;;;4183420;28;20087;-80
2022/01/11 07:35:53;;;;;;;48.25;17.75;;;8.10;99.90;;;;;;4185269;28;20071;-79
2022/01/11 07:37:55;;;;;;;33.65;16.15;;;8.10;99.90;;;;;;4192152;28;20095;-80
2022/01/11 07:39:57;;;;;;;38.53;17.17;;;8.10;99.90;;;;;;4192667;28;20048;-80
2022/01/11 07:41:59;;;;;;;34.70;16.65;;;8.10;99.90;;;;;;4199927;28;20040;-79
2022/01/11 07:44:01;;;;;;;32.88;17.25;;;8.10;99.90;;;;;;4199921;28;20044;-79
2022/01/11 07:46:03;;;;;;;34.55;16.88;;;8.10;99.90;;;;;;4199700;28;20552;-81
2022/01/11 07:48:05;;;;;;;37.03;17.00;;;8.10;99.90;;;;;;4198384;28;20201;-80
2022/01/11 07:50:08;;;;;;;38.35;15.93;;;8.10;99.90;;;;;;4195429;28;20059;-82
2022/01/11 07:52:10;;;;;;;34.85;16.67;;;8.10;99.90;;;;;;4199336;28;20496;-79
2022/01/11 07:54:12;;;;;;;36.53;15.85;;;8.10;99.90;;;;;;4203721;28;20052;-80
2022/01/11 07:56:14;;;;;;;37.22;16.30;;;8.10;99.90;;;;;;4187526;28;20452;-80
2022/01/11 07:58:16;;;;;;;34.25;17.45;;;8.10;99.90;;;;;;4212508;28;20048;-81
2022/01/11 08:00:17;;;;;;;46.63;17.20;;;8.10;99.90;;;;;;4211531;28;20508;-79
2022/01/11 08:02:21;;;;;;;44.08;18.90;;;8.10;99.90;;;;;;4199644;28;20518;-81
2022/01/11 08:04:24;;;;;;;36.00;17.02;;;8.20;99.90;;;;;;4194781;28;20048;-86
2022/01/11 08:06:26;;;;;;;39.28;16.60;;;8.20;99.90;;;;;;4199593;28;20116;-81
2022/01/11 08:08:28;;;;;;;44.55;18.48;;;8.20;99.90;;;;;;4199758;28;20496;-81
2022/01/11 08:10:31;;;;;;;37.42;16.77;;;8.20;99.90;;;;;;4199517;28;20052;-79
2022/01/11 08:12:32;;;;;;;40.88;18.08;;;8.20;99.90;;;;;;4189592;28;20049;-79
2022/01/11 08:14:34;;;;;;;37.70;17.98;;;8.20;99.90;;;;;;4197547;28;20086;-80
2022/01/11 08:16:36;;;;;;;40.08;18.45;;;8.20;99.90;;;;;;4200364;28;20079;-77
2022/01/11 08:18:40;;;;;;;43.25;18.60;;;8.20;99.90;;;;;;4208113;28;20053;-79
2022/01/11 08:20:43;;;;;;;34.35;17.23;;;8.30;99.90;;;;;;4204649;28;20098;-79
2022/01/11 08:22:48;;;;;;;43.55;18.40;;;8.30;99.90;;;;;;4202700;28;20066;-79
2022/01/11 08:24:51;;;;;;;49.10;18.50;;;8.30;99.90;;;;;;4195893;28;20788;-78
2022/01/11 08:26:54;;;;;;;41.50;18.23;;;8.30;99.90;;;;;;4207953;28;20075;-78
2022/01/11 08:28:56;;;;;;;42.10;17.70;;;8.30;99.90;;;;;;4200463;28;20093;-79
2022/01/11 08:30:59;;;;;;;41.60;18.08;;;8.30;99.90;;;;;;4206529;28;20048;-79
2022/01/11 08:33:04;;;;;;;39.63;18.60;;;8.30;99.90;;;;;;4211123;28;20075;-80
2022/01/11 08:35:06;;;;;;;40.28;18.58;;;8.40;99.90;;;;;;4203785;28;20048;-78
2022/01/11 08:37:09;;;;;;;42.00;19.45;;;8.40;99.90;;;;;;4205926;28;20067;-81
2022/01/11 08:39:12;;;;;;;42.63;20.38;;;8.30;99.90;;;;;;4205282;28;20535;-79
2022/01/11 08:41:14;;;;;;;46.20;20.13;;;8.40;99.90;;;;;;4194249;28;20056;-79
2022/01/11 08:43:15;;;;;;;35.88;19.10;;;8.40;99.90;;;;;;4202140;28;20045;-79
2022/01/11 08:45:18;;;;;;;37.63;18.90;;;8.40;99.90;;;;;;4193789;28;20048;-79
2022/01/11 08:47:20;;;;;;;49.22;22.52;;;8.40;99.90;;;;;;4198344;28;20076;-78
2022/01/11 08:49:22;;;;;;;42.67;20.45;;;8.40;99.90;;;;;;4204890;28;20095;-79
2022/01/11 08:51:25;;;;;;;39.67;19.90;;;8.50;99.90;;;;;;4204429;28;20059;-78
2022/01/11 08:53:27;;;;;;;53.13;20.55;;;8.40;99.90;;;;;;4212151;28;20512;-79
2022/01/11 08:55:28;;;;;;;48.03;20.58;;;8.40;99.90;;;;;;4201936;28;20064;-79
2022/01/11 08:57:31;;;;;;;42.80;20.88;;;8.40;99.90;;;;;;4199698;28;20068;-79
2022/01/11 08:59:33;;;;;;;40.88;21.15;;;8.50;99.90;;;;;;4209018;28;20053;-80
2022/01/11 09:01:35;;;;;;;40.20;20.65;;;8.50;99.90;;;;;;4198479;28;20586;-79
2022/01/11 09:03:39;;;;;;;37.38;19.77;;;8.50;99.90;;;;;;4198749;28;20044;-79
2022/01/11 09:05:41;;;;;;;37.05;19.38;;;8.50;99.90;;;;;;4195506;28;20090;-79
2022/01/11 09:07:43;;;;;;;42.47;22.48;;;8.50;99.90;;;;;;4200615;28;20044;-79
2022/01/11 09:09:45;;;;;;;49.53;21.05;;;8.40;99.90;;;;;;4200541;28;20123;-78
2022/01/11 09:11:47;;;;;;;42.40;20.25;;;8.50;99.90;;;;;;4203477;28;20138;-79
2022/01/11 09:13:49;;;;;;;51.58;21.00;;;8.50;99.90;;;;;;4202324;28;20083;-82
2022/01/11 09:15:51;;;;;;;49.25;20.25;;;8.50;99.90;;;;;;4200132;28;20055;-80
2022/01/11 09:17:53;;;;;;;45.80;20.30;;;8.50;99.90;;;;;;4196473;28;20049;-78
2022/01/11 09:19:55;;;;;;;39.50;20.23;;;8.50;99.90;;;;;;4208308;28;20143;-79
2022/01/11 09:21:58;;;;;;;45.20;20.88;;;8.50;99.90;;;;;;4199541;28;20080;-78
2022/01/11 09:24:00;;;;;;;42.65;20.13;;;8.50;99.90;;;;;;4198926;28;20166;-79
2022/01/11 09:26:02;;;;;;;44.17;20.58;;;8.50;99.90;;;;;;4199395;28;20049;-79
2022/01/11 09:28:04;;;;;;;42.10;20.50;;;8.50;99.90;;;;;;4193834;28;20047;-79
2022/01/11 09:30:08;;;;;;;40.80;21.73;;;8.50;99.90;;;;;;4191595;28;20079;-79
2022/01/11 09:32:12;;;;;;;43.20;23.55;;;8.50;99.90;;;;;;4181143;28;20041;-80
2022/01/11 09:34:14;;;;;;;49.72;21.42;;;8.50;99.90;;;;;;4195443;28;20052;-79
2022/01/11 09:36:16;;;;;;;37.42;19.48;;;8.50;99.90;;;;;;4187507;28;20693;-78
2022/01/11 09:38:18;;;;;;;41.40;20.95;;;8.60;99.90;;;;;;4183218;28;20049;-79
2022/01/11 09:40:20;;;;;;;43.55;20.17;;;8.60;99.90;;;;;;4195847;28;20071;-79
2022/01/11 09:42:23;;;;;;;37.67;20.25;;;8.60;99.90;;;;;;4193451;28;20147;-79
2022/01/11 09:44:26;;;;;;;38.88;19.75;;;8.60;99.90;;;;;;4195185;28;20076;-79
2022/01/11 09:46:28;;;;;;;36.70;20.02;;;8.60;99.90;;;;;;4195457;28;20571;-79
2022/01/11 09:48:35;;;;;;;43.13;21.48;;;8.60;99.90;;;;;;4194102;28;20098;-79
2022/01/11 09:50:37;;;;;;;43.65;19.33;;;8.60;99.90;;;;;;4178153;28;20045;-79
2022/01/11 09:52:40;;;;;;;43.35;21.90;;;8.60;99.90;;;;;;4178929;28;20049;-79
2022/01/11 09:54:46;;;;;;;42.60;20.95;;;8.60;99.90;;;;;;4179008;28;20049;-79
2022/01/11 09:56:48;;;;;;;36.03;20.60;;;8.70;99.90;;;;;;4179115;28;20056;-79
2022/01/11 09:58:50;;;;;;;36.47;19.52;;;8.70;99.90;;;;;;4189535;28;20777;-79
2022/01/11 10:00:53;;;;;;;34.65;17.52;;;8.70;99.90;;;;;;4195519;28;20554;-79
2022/01/11 10:02:56;;;;;;;36.00;18.95;;;8.70;99.90;;;;;;4195706;28;20064;-80
2022/01/11 10:05:01;;;;;;;49.90;19.60;;;8.70;99.90;;;;;;4195817;28;20147;-81
2022/01/11 10:07:08;;;;;;;35.17;17.92;;;8.70;99.90;;;;;;4190776;28;20052;-80
2022/01/11 10:09:20;;;;;;;36.88;18.42;;;8.80;99.90;;;;;;4201466;28;20044;-81
2022/01/11 10:11:43;;;;;;;35.40;19.50;;;8.70;99.90;;;;;;4212737;28;20523;-80
2022/01/11 10:13:45;;;;;;;33.00;20.05;;;8.70;99.90;;;;;;4212592;28;20485;-81
2022/01/11 10:15:47;;;;;;;33.97;18.90;;;8.80;99.90;;;;;;4203103;28;20080;-78
2022/01/11 10:17:49;;;;;;;35.00;17.10;;;8.80;99.90;;;;;;4195081;28;20143;-79
2022/01/11 10:20:13;;;;;;;31.75;17.75;;;8.80;99.90;;;;;;4196268;28;20072;-79
2022/01/11 10:22:18;;;;;;;27.63;15.80;;;8.80;99.90;;;;;;4195023;28;20060;-79
2022/01/11 10:24:32;;;;;;;28.95;16.85;;;8.80;99.90;;;;;;4192812;28;20072;-79
2022/01/11 10:26:44;;;;;;;32.08;16.40;;;8.80;99.90;;;;;;4178527;28;20532;-78
2022/01/11 10:28:46;;;;;;;27.90;15.98;;;8.80;99.90;;;;;;4178490;28;20081;-79
2022/01/11 10:30:48;;;;;;;29.77;15.85;;;8.90;99.90;;;;;;4184437;28;20052;-79
2022/01/11 10:32:51;;;;;;;28.85;14.82;;;8.90;99.90;;;;;;4194574;28;20459;-79
2022/01/11 10:34:56;;;;;;;27.95;15.63;;;8.90;99.90;;;;;;4195199;28;20650;-79
2022/01/11 10:37:01;;;;;;;24.55;14.30;;;8.90;99.90;;;;;;4194910;28;20079;-79
2022/01/11 10:39:29;;;;;;;23.95;14.02;;;8.90;99.90;;;;;;4191498;28;20086;-79